Time;durP1;ratioP1;P1;durP2;ratioP2;P2;SDS_P1;SDS_P2;PMS_P1;PMS_P2;Temp;Humidity;BMP_temperature;BMP_pressure;BME280_temperature;BME280_humidity;BME280_pressure;Samples;Min_cycle;Max_cycle;Signal;HPM_P1;HPM_P2
2023/12/25 00:02:13;;;;;;;13.88;2.47;;;12.30;85.50;;;;;;4989220;28;20274;-78
2023/12/25 00:04:40;;;;;;;15.35;2.28;;;12.20;85.50;;;;;;4990163;28;20062;-75
2023/12/25 00:07:08;;;;;;;8.60;1.55;;;12.20;85.60;;;;;;4981387;28;20117;-75
2023/12/25 00:09:35;;;;;;;8.05;1.35;;;12.20;85.50;;;;;;4970200;28;20086;-75
2023/12/25 00:12:02;;;;;;;12.20;2.07;;;12.20;85.50;;;;;;4988820;28;20841;-75
2023/12/25 00:14:31;;;;;;;12.75;2.15;;;12.10;85.60;;;;;;4983360;28;20353;-75
2023/12/25 00:16:57;;;;;;;10.73;2.00;;;12.10;85.70;;;;;;4979358;28;20157;-75
2023/12/25 00:19:24;;;;;;;11.25;1.63;;;12.10;85.40;;;;;;4990150;28;20145;-75
2023/12/25 00:21:51;;;;;;;11.02;2.28;;;12.10;85.50;;;;;;4973589;28;20150;-75
2023/12/25 00:24:18;;;;;;;13.47;2.37;;;12.10;85.50;;;;;;4985953;28;20058;-75
2023/12/25 00:26:45;;;;;;;8.10;1.80;;;12.10;85.40;;;;;;4981021;28;20258;-75
2023/12/25 00:29:12;;;;;;;9.70;2.05;;;12.00;85.30;;;;;;4989724;28;20054;-75
2023/12/25 00:31:41;;;;;;;14.35;2.40;;;12.00;85.20;;;;;;4972997;28;20054;-75
2023/12/25 00:34:09;;;;;;;10.75;2.38;;;12.00;84.80;;;;;;4985965;28;20057;-75
2023/12/25 00:36:37;;;;;;;14.47;1.80;;;12.00;85.00;;;;;;4973454;28;20473;-75
2023/12/25 00:39:04;;;;;;;10.52;1.63;;;12.00;84.70;;;;;;4973882;28;20301;-75
2023/12/25 00:41:31;;;;;;;7.47;1.55;;;12.00;84.50;;;;;;4987327;28;20493;-75
2023/12/25 00:43:58;;;;;;;7.40;1.05;;;11.90;84.10;;;;;;4971587;28;20491;-75
2023/12/25 00:46:25;;;;;;;10.10;1.48;;;11.90;84.10;;;;;;4960578;28;20054;-75
2023/12/25 00:48:54;;;;;;;10.67;1.77;;;11.90;84.00;;;;;;5008199;28;20153;-75
2023/12/25 00:51:21;;;;;;;8.10;1.10;;;11.90;83.80;;;;;;4976971;28;20282;-75
2023/12/25 00:53:48;;;;;;;6.22;1.17;;;11.90;83.70;;;;;;5023194;28;20058;-75
2023/12/25 00:56:15;;;;;;;9.38;0.90;;;11.90;83.70;;;;;;5005834;28;20501;-75
2023/12/25 00:58:42;;;;;;;8.70;1.10;;;11.90;83.50;;;;;;4973891;28;20050;-75
2023/12/25 01:01:09;;;;;;;7.40;0.93;;;11.90;83.20;;;;;;4968553;28;20055;-75
2023/12/25 01:03:37;;;;;;;7.57;1.15;;;11.90;83.30;;;;;;5007427;28;20794;-75
2023/12/25 01:06:05;;;;;;;5.80;0.65;;;11.90;82.90;;;;;;4974408;28;20058;-75
2023/12/25 01:08:32;;;;;;;10.77;1.50;;;11.90;82.80;;;;;;4970536;28;20130;-75
2023/12/25 01:11:02;;;;;;;9.77;1.60;;;11.90;82.80;;;;;;4962112;28;20057;-75
2023/12/25 01:13:29;;;;;;;8.90;1.40;;;11.90;82.80;;;;;;4990304;28;20141;-75
2023/12/25 01:15:59;;;;;;;6.05;0.60;;;11.90;82.70;;;;;;4994492;28;20317;-75
2023/12/25 01:18:38;;;;;;;10.60;1.60;;;11.80;82.90;;;;;;4987634;28;20149;-75
2023/12/25 01:24:10;;;;;;;8.75;1.33;;;11.80;83.00;;;;;;4990298;28;20075;-75
2023/12/25 01:26:41;;;;;;;10.63;1.23;;;11.80;83.00;;;;;;4975136;28;20055;-75
2023/12/25 01:29:13;;;;;;;11.88;1.73;;;11.70;83.20;;;;;;4989232;28;20353;-75
2023/12/25 01:31:41;;;;;;;8.35;1.48;;;11.70;83.40;;;;;;4991246;28;20051;-75
2023/12/25 01:34:08;;;;;;;8.95;1.45;;;11.80;83.50;;;;;;5008896;28;20077;-75
2023/12/25 01:36:38;;;;;;;13.38;1.70;;;11.70;83.70;;;;;;4992939;28;20227;-75
2023/12/25 01:39:07;;;;;;;9.57;1.73;;;11.70;83.80;;;;;;4989118;28;20492;-75
2023/12/25 01:41:34;;;;;;;11.98;1.45;;;11.70;83.90;;;;;;4980342;28;20285;-75
2023/12/25 01:44:01;;;;;;;8.73;1.20;;;11.70;83.70;;;;;;4981034;28;20046;-76
2023/12/25 01:46:28;;;;;;;8.80;1.50;;;11.70;83.80;;;;;;4991723;28;20157;-75
2023/12/25 01:48:55;;;;;;;9.15;1.85;;;11.70;84.00;;;;;;4993962;28;20146;-75
2023/12/25 01:51:24;;;;;;;10.90;2.30;;;11.70;84.00;;;;;;4977887;28;20099;-75
2023/12/25 01:53:54;;;;;;;7.47;1.13;;;11.70;83.70;;;;;;4967917;28;20337;-75
2023/12/25 01:56:22;;;;;;;8.63;1.20;;;11.70;83.50;;;;;;4959064;28;20051;-75
2023/12/25 01:58:49;;;;;;;5.85;0.90;;;11.70;83.00;;;;;;4987119;28;20576;-75
2023/12/25 02:01:16;;;;;;;9.55;0.90;;;11.70;82.70;;;;;;4975146;28;20050;-75
2023/12/25 02:03:44;;;;;;;11.40;1.90;;;11.70;82.50;;;;;;4964911;28;20121;-75
2023/12/25 02:06:14;;;;;;;7.75;1.73;;;11.70;82.40;;;;;;4978419;28;20885;-75
2023/12/25 02:08:43;;;;;;;6.07;1.08;;;11.70;82.50;;;;;;4997447;28;20576;-75
2023/12/25 02:11:12;;;;;;;10.50;1.17;;;11.70;82.40;;;;;;4973141;28;20751;-75
2023/12/25 02:13:41;;;;;;;9.27;1.25;;;11.70;82.50;;;;;;4985864;28;20058;-75
2023/12/25 02:16:11;;;;;;;6.90;1.23;;;11.70;82.70;;;;;;4981805;28;20264;-75
2023/12/25 02:18:47;;;;;;;7.05;1.08;;;11.70;82.60;;;;;;4998198;28;20242;-75
2023/12/25 02:21:22;;;;;;;7.97;1.27;;;11.70;82.80;;;;;;4963884;28;20062;-75
2023/12/25 02:24:00;;;;;;;8.35;1.20;;;11.70;82.90;;;;;;4968424;28;20046;-75
2023/12/25 02:26:29;;;;;;;7.10;0.85;;;11.70;82.90;;;;;;4993444;28;20979;-75
2023/12/25 02:28:56;;;;;;;9.47;1.70;;;11.70;82.90;;;;;;5011709;28;20065;-75
2023/12/25 02:31:24;;;;;;;9.80;1.10;;;11.70;82.40;;;;;;4997976;28;20463;-75
2023/12/25 02:33:50;;;;;;;6.22;0.60;;;11.70;82.40;;;;;;4978024;28;20608;-75
2023/12/25 02:36:17;;;;;;;6.47;0.80;;;11.70;82.00;;;;;;4994371;28;20046;-75
2023/12/25 02:38:44;;;;;;;7.85;1.05;;;11.70;81.70;;;;;;4986580;28;20860;-76
2023/12/25 02:41:11;;;;;;;8.17;1.63;;;11.70;81.40;;;;;;4992047;28;20062;-76
2023/12/25 02:43:40;;;;;;;6.18;0.90;;;11.60;81.20;;;;;;4963870;28;20376;-75
2023/12/25 02:46:06;;;;;;;8.20;1.40;;;11.70;81.10;;;;;;4993981;28;20129;-75
2023/12/25 02:48:33;;;;;;;7.53;1.20;;;11.60;81.10;;;;;;5009265;28;20142;-76
2023/12/25 02:51:00;;;;;;;5.90;1.13;;;11.60;81.30;;;;;;4976398;28;20049;-75
2023/12/25 02:53:30;;;;;;;7.67;1.03;;;11.60;81.20;;;;;;5011460;28;20058;-75
2023/12/25 02:55:57;;;;;;;6.05;0.90;;;11.60;81.00;;;;;;4971453;28;20269;-75
2023/12/25 02:58:24;;;;;;;4.70;0.70;;;11.60;80.90;;;;;;4975978;28;20081;-75
2023/12/25 03:00:52;;;;;;;7.45;0.90;;;11.60;80.90;;;;;;4992943;28;20141;-75
2023/12/25 03:03:19;;;;;;;5.78;0.80;;;11.60;80.90;;;;;;4992202;28;20057;-75
2023/12/25 03:05:46;;;;;;;8.00;1.23;;;11.60;81.10;;;;;;4972714;28;20126;-75
2023/12/25 03:08:13;;;;;;;5.38;0.77;;;11.60;81.00;;;;;;4973576;28;20350;-74
2023/12/25 03:10:40;;;;;;;6.60;0.80;;;11.60;81.00;;;;;;4991875;28;20047;-75
2023/12/25 03:13:07;;;;;;;4.07;0.73;;;11.50;81.00;;;;;;4984349;28;20162;-75
2023/12/25 03:15:35;;;;;;;9.27;0.93;;;11.50;80.90;;;;;;4982309;28;20054;-75
2023/12/25 03:18:04;;;;;;;7.57;0.83;;;11.50;80.50;;;;;;4975909;28;20417;-75
2023/12/25 03:20:31;;;;;;;6.47;0.80;;;11.50;80.00;;;;;;4989874;28;20247;-75
2023/12/25 03:22:58;;;;;;;4.35;0.80;;;11.50;79.80;;;;;;4989890;28;20123;-75
2023/12/25 03:25:24;;;;;;;6.53;1.10;;;11.50;79.80;;;;;;4983874;28;20058;-75
2023/12/25 03:27:53;;;;;;;6.30;0.88;;;11.50;79.60;;;;;;4991392;28;20053;-75
2023/12/25 03:30:19;;;;;;;7.47;0.80;;;11.50;79.60;;;;;;5003357;28;20046;-75
2023/12/25 03:32:46;;;;;;;7.20;0.90;;;11.50;79.30;;;;;;4971713;28;20326;-75
2023/12/25 03:35:15;;;;;;;4.30;0.50;;;11.50;78.70;;;;;;4975046;28;20513;-75
2023/12/25 03:37:43;;;;;;;5.97;0.77;;;11.50;78.80;;;;;;4974879;28;20749;-76
2023/12/25 03:40:11;;;;;;;6.03;1.20;;;11.50;78.90;;;;;;4988259;28;20042;-75
2023/12/25 03:42:38;;;;;;;7.23;0.93;;;11.50;78.90;;;;;;4971794;28;20161;-75
2023/12/25 03:45:06;;;;;;;7.22;0.60;;;11.50;79.00;;;;;;4970844;28;20263;-75
2023/12/25 03:47:33;;;;;;;6.07;0.70;;;11.50;79.20;;;;;;4970758;28;20505;-75
2023/12/25 03:50:00;;;;;;;6.05;0.73;;;11.60;79.10;;;;;;4969162;28;20095;-75
2023/12/25 03:52:28;;;;;;;6.85;1.00;;;11.50;79.10;;;;;;4970119;28;20051;-75
2023/12/25 03:54:55;;;;;;;7.23;0.67;;;11.50;79.30;;;;;;4992158;28;20058;-75
2023/12/25 03:57:22;;;;;;;5.85;0.80;;;11.60;79.10;;;;;;4991398;28;20278;-75
2023/12/25 03:59:49;;;;;;;6.00;0.75;;;11.60;79.00;;;;;;4987258;28;20089;-74
2023/12/25 04:02:16;;;;;;;4.05;0.85;;;11.50;79.10;;;;;;4979225;28;20124;-75
2023/12/25 04:04:43;;;;;;;7.18;0.90;;;11.60;79.00;;;;;;4979051;28;20050;-74
2023/12/25 04:07:10;;;;;;;6.83;0.83;;;11.60;79.10;;;;;;5013553;28;20062;-75
2023/12/25 04:09:39;;;;;;;7.45;0.77;;;11.60;79.20;;;;;;4975404;28;20250;-74
2023/12/25 04:12:07;;;;;;;5.90;0.82;;;11.60;79.10;;;;;;4996375;28;20137;-75
2023/12/25 04:14:37;;;;;;;4.53;0.80;;;11.60;79.00;;;;;;4995688;28;21006;-74
2023/12/25 04:17:04;;;;;;;6.28;1.10;;;11.50;79.00;;;;;;4995697;28;20050;-75
2023/12/25 04:19:32;;;;;;;4.70;0.67;;;11.50;79.00;;;;;;4976479;28;20058;-75
2023/12/25 04:22:00;;;;;;;5.50;0.93;;;11.50;79.10;;;;;;4976749;28;20288;-75
2023/12/25 04:24:27;;;;;;;5.90;0.98;;;11.50;79.40;;;;;;4976676;28;20083;-75
2023/12/25 04:26:55;;;;;;;5.20;0.93;;;11.50;79.50;;;;;;4959070;28;20055;-75
2023/12/25 04:29:22;;;;;;;6.43;0.70;;;11.50;79.70;;;;;;4961560;28;20062;-74
2023/12/25 04:31:50;;;;;;;5.33;0.70;;;11.50;80.10;;;;;;4988141;28;20057;-75
2023/12/25 04:34:17;;;;;;;6.03;0.88;;;11.50;80.10;;;;;;5014522;28;20813;-75
2023/12/25 04:36:44;;;;;;;6.03;0.70;;;11.50;80.50;;;;;;4994624;28;20508;-75
2023/12/25 04:39:12;;;;;;;2.92;0.55;;;11.50;80.80;;;;;;4979634;28;20050;-75
2023/12/25 04:41:39;;;;;;;7.50;1.20;;;11.50;81.10;;;;;;5012994;28;20050;-75
2023/12/25 04:44:07;;;;;;;5.97;0.70;;;11.50;81.20;;;;;;4968687;28;20066;-76
2023/12/25 04:46:35;;;;;;;5.32;0.70;;;11.50;81.50;;;;;;4985475;28;20277;-75
2023/12/25 04:49:02;;;;;;;6.30;0.93;;;11.50;81.60;;;;;;4995534;28;20050;-75
2023/12/25 04:51:29;;;;;;;4.70;0.90;;;11.50;81.60;;;;;;4977831;28;20129;-75
2023/12/25 04:53:56;;;;;;;5.28;1.00;;;11.50;81.60;;;;;;4966384;28;20097;-76
2023/12/25 04:56:23;;;;;;;6.17;0.97;;;11.50;81.50;;;;;;4981922;28;20169;-74
2023/12/25 04:58:50;;;;;;;5.72;0.98;;;11.50;81.40;;;;;;4994668;28;20226;-75
2023/12/25 05:01:18;;;;;;;6.80;0.73;;;11.50;81.40;;;;;;4967784;28;20058;-75
2023/12/25 05:03:45;;;;;;;3.35;0.50;;;11.50;81.40;;;;;;4978099;28;20608;-75
2023/12/25 05:06:12;;;;;;;4.68;0.80;;;11.50;81.40;;;;;;4993991;28;20188;-75
2023/12/25 05:08:39;;;;;;;6.17;0.87;;;11.50;81.20;;;;;;4979512;28;20047;-74
2023/12/25 05:11:06;;;;;;;6.63;1.10;;;11.50;81.20;;;;;;4983563;28;20310;-75
2023/12/25 05:13:33;;;;;;;7.88;0.90;;;11.50;80.70;;;;;;5011908;28;20157;-74
2023/12/25 05:16:00;;;;;;;7.15;0.88;;;11.50;80.70;;;;;;4994973;28;20069;-75
2023/12/25 05:18:29;;;;;;;7.05;0.75;;;11.50;80.60;;;;;;4971266;28;20055;-75
2023/12/25 05:20:55;;;;;;;5.37;0.80;;;11.50;80.50;;;;;;4987990;28;20093;-75
2023/12/25 05:23:21;;;;;;;5.82;0.75;;;11.50;80.50;;;;;;4979851;28;20333;-74
2023/12/25 05:25:48;;;;;;;6.70;0.80;;;11.50;80.50;;;;;;5012184;28;20160;-75
2023/12/25 05:28:15;;;;;;;6.82;0.90;;;11.50;80.20;;;;;;5010011;28;20142;-76
2023/12/25 05:30:42;;;;;;;5.72;0.60;;;11.50;80.20;;;;;;4994632;28;21026;-74
2023/12/25 05:33:09;;;;;;;7.27;0.83;;;11.50;80.40;;;;;;4996025;28;20050;-75
2023/12/25 05:35:38;;;;;;;6.18;0.80;;;11.50;80.40;;;;;;5011271;28;20115;-76
2023/12/25 05:38:05;;;;;;;5.32;0.70;;;11.50;80.50;;;;;;4999196;28;20742;-76
2023/12/25 05:40:32;;;;;;;6.20;0.63;;;11.50;80.50;;;;;;4975351;28;20086;-76
2023/12/25 05:42:59;;;;;;;7.97;1.35;;;11.50;80.60;;;;;;4969341;28;20050;-75
2023/12/25 05:45:26;;;;;;;6.37;1.13;;;11.50;80.60;;;;;;5005364;28;20150;-76
2023/12/25 05:47:53;;;;;;;5.32;0.90;;;11.50;80.70;;;;;;4967251;28;20590;-74
2023/12/25 05:50:21;;;;;;;3.47;0.60;;;11.50;80.70;;;;;;5010525;28;20117;-74
2023/12/25 05:52:49;;;;;;;4.60;0.40;;;11.50;80.70;;;;;;4993054;28;20074;-76
2023/12/25 05:55:16;;;;;;;5.93;0.85;;;11.50;80.80;;;;;;4993228;28;20109;-75
2023/12/25 05:57:43;;;;;;;3.40;0.53;;;11.50;80.70;;;;;;5010813;28;21170;-74
2023/12/25 06:00:11;;;;;;;5.80;0.80;;;11.40;80.70;;;;;;5010022;28;20142;-76
2023/12/25 06:02:41;;;;;;;5.45;0.70;;;11.40;80.50;;;;;;5009583;28;20505;-75
2023/12/25 06:05:09;;;;;;;5.05;0.70;;;11.40;80.50;;;;;;5004398;28;20054;-75
2023/12/25 06:07:36;;;;;;;5.53;0.70;;;11.40;80.40;;;;;;4995664;28;20050;-75
2023/12/25 06:10:04;;;;;;;5.83;0.80;;;11.40;80.30;;;;;;4992588;28;20797;-74
2023/12/25 06:12:31;;;;;;;5.72;0.60;;;11.40;80.40;;;;;;5005955;28;20118;-76
2023/12/25 06:14:58;;;;;;;3.38;0.60;;;11.40;80.30;;;;;;4973090;28;20110;-75
2023/12/25 06:17:25;;;;;;;5.43;0.60;;;11.40;80.30;;;;;;4973520;28;20057;-75
2023/12/25 06:19:52;;;;;;;4.40;0.40;;;11.40;80.40;;;;;;5010056;28;20054;-76
2023/12/25 06:22:19;;;;;;;5.13;0.40;;;11.30;80.20;;;;;;4977593;28;20058;-75
2023/12/25 06:24:46;;;;;;;6.75;0.88;;;11.30;80.40;;;;;;4977600;28;20137;-74
2023/12/25 06:27:14;;;;;;;5.00;1.13;;;11.30;80.00;;;;;;4994819;28;20133;-76
2023/12/25 06:29:41;;;;;;;2.28;0.45;;;11.30;79.60;;;;;;5011952;28;20171;-75
2023/12/25 06:32:08;;;;;;;7.65;1.02;;;11.30;79.70;;;;;;4995391;28;21173;-76
2023/12/25 06:34:35;;;;;;;7.00;0.70;;;11.30;79.70;;;;;;5011637;28;20064;-77
2023/12/25 06:37:03;;;;;;;6.82;1.00;;;11.30;79.50;;;;;;4979044;28;20102;-77
2023/12/25 06:39:30;;;;;;;4.55;0.60;;;11.30;79.40;;;;;;4991804;28;20057;-76
2023/12/25 06:41:57;;;;;;;4.47;0.82;;;11.20;79.60;;;;;;4975909;28;20057;-77
2023/12/25 06:44:25;;;;;;;5.82;0.60;;;11.10;79.70;;;;;;4974799;28;20143;-76
2023/12/25 06:46:52;;;;;;;6.50;0.50;;;11.10;79.60;;;;;;5011571;28;20166;-76
2023/12/25 06:49:19;;;;;;;4.45;0.70;;;11.10;79.80;;;;;;4965715;28;20057;-75
2023/12/25 06:51:46;;;;;;;6.22;0.85;;;11.10;80.00;;;;;;4991227;28;20146;-76
2023/12/25 06:54:13;;;;;;;6.90;0.77;;;11.10;80.10;;;;;;5000402;28;20133;-75
2023/12/25 06:56:40;;;;;;;4.30;0.73;;;11.10;80.30;;;;;;5011534;28;20102;-75
2023/12/25 06:59:07;;;;;;;6.07;0.47;;;11.10;80.40;;;;;;5010204;28;20101;-76
2023/12/25 07:01:36;;;;;;;5.28;0.70;;;11.00;80.50;;;;;;4993596;28;20064;-76
2023/12/25 07:04:02;;;;;;;4.18;0.63;;;11.00;80.60;;;;;;5010466;28;20817;-75
2023/12/25 07:06:29;;;;;;;3.72;0.75;;;11.00;80.60;;;;;;4974056;28;20171;-76
2023/12/25 07:08:56;;;;;;;4.18;0.50;;;11.00;80.70;;;;;;4992785;28;20133;-76
2023/12/25 07:11:23;;;;;;;6.10;0.70;;;11.00;80.70;;;;;;5009787;28;20479;-75
2023/12/25 07:13:50;;;;;;;5.28;0.60;;;11.00;80.90;;;;;;4977010;28;20055;-76
2023/12/25 07:16:23;;;;;;;3.65;0.70;;;11.00;81.00;;;;;;5008479;28;20102;-75
2023/12/25 07:18:52;;;;;;;7.22;1.08;;;11.00;81.20;;;;;;4975412;28;20959;-77
2023/12/25 07:21:21;;;;;;;7.00;0.80;;;11.00;81.40;;;;;;4990470;28;20697;-76
2023/12/25 07:23:48;;;;;;;3.43;0.50;;;11.00;81.60;;;;;;4971615;28;20516;-76
2023/12/25 07:26:17;;;;;;;6.07;0.57;;;11.00;81.60;;;;;;4989012;28;20054;-75
2023/12/25 07:28:44;;;;;;;3.47;0.40;;;10.90;81.90;;;;;;4989348;28;20055;-76
2023/12/25 07:31:12;;;;;;;6.45;0.73;;;10.90;82.00;;;;;;4990700;28;20046;-75
2023/12/25 07:33:39;;;;;;;5.15;1.00;;;10.90;82.10;;;;;;5004563;28;20058;-76
2023/12/25 07:36:08;;;;;;;5.33;0.50;;;10.80;82.10;;;;;;5006565;28;20331;-76
2023/12/25 07:38:35;;;;;;;4.35;0.70;;;10.80;82.20;;;;;;5007009;28;20914;-75
2023/12/25 07:41:02;;;;;;;3.80;0.75;;;10.80;82.20;;;;;;4987135;28;20496;-76
2023/12/25 07:43:31;;;;;;;7.47;0.80;;;10.80;82.20;;;;;;4998970;28;20061;-76
2023/12/25 07:45:58;;;;;;;5.85;0.75;;;10.80;82.20;;;;;;5003933;28;20069;-74
2023/12/25 07:48:25;;;;;;;8.20;1.20;;;10.70;82.20;;;;;;4970560;28;20057;-74
2023/12/25 07:50:52;;;;;;;6.50;0.85;;;10.70;82.00;;;;;;5013092;28;20452;-75
2023/12/25 07:53:20;;;;;;;5.95;0.55;;;10.60;82.20;;;;;;4969772;28;20054;-75
2023/12/25 07:55:47;;;;;;;2.17;0.40;;;10.70;82.00;;;;;;5003463;28;20508;-75
2023/12/25 07:58:14;;;;;;;6.93;0.95;;;10.60;82.10;;;;;;4984842;28;20054;-75
2023/12/25 08:00:43;;;;;;;5.07;0.77;;;10.60;82.00;;;;;;4986066;28;20054;-75
2023/12/25 08:03:11;;;;;;;5.25;0.80;;;10.60;81.70;;;;;;4971428;28;20042;-76
2023/12/25 08:05:38;;;;;;;8.40;0.70;;;10.60;81.50;;;;;;4988010;28;20548;-77
2023/12/25 08:08:06;;;;;;;5.55;0.75;;;10.60;81.70;;;;;;4987774;28;20058;-77
2023/12/25 08:10:35;;;;;;;6.80;0.88;;;10.60;81.80;;;;;;4992797;28;20057;-76
2023/12/25 08:13:02;;;;;;;5.50;0.60;;;10.50;81.70;;;;;;4952595;28;20137;-76
2023/12/25 08:15:29;;;;;;;6.68;0.80;;;10.60;81.60;;;;;;4989104;28;20599;-76
2023/12/25 08:17:56;;;;;;;4.28;0.93;;;10.50;81.50;;;;;;5003952;28;20061;-76
2023/12/25 08:20:23;;;;;;;6.40;1.30;;;10.50;81.60;;;;;;4988276;28;20616;-75
2023/12/25 08:22:49;;;;;;;7.07;0.98;;;10.50;81.60;;;;;;4970726;28;20138;-76
2023/12/25 08:25:16;;;;;;;2.97;0.40;;;10.50;81.70;;;;;;4986484;28;20487;-76
2023/12/25 08:27:45;;;;;;;2.85;0.40;;;10.50;81.60;;;;;;4971283;28;20061;-76
2023/12/25 08:30:13;;;;;;;5.22;0.70;;;10.50;81.70;;;;;;4986045;28;20153;-77
2023/12/25 08:32:40;;;;;;;3.78;0.47;;;10.50;81.60;;;;;;4985610;28;20061;-79
2023/12/25 08:35:07;;;;;;;7.40;0.82;;;10.50;81.80;;;;;;4985710;28;20681;-78
2023/12/25 08:37:34;;;;;;;4.97;0.50;;;10.50;81.80;;;;;;4998988;28;20487;-78
2023/12/25 08:40:03;;;;;;;2.63;0.50;;;10.50;81.80;;;;;;4968862;28;20284;-78
2023/12/25 08:42:30;;;;;;;4.97;0.43;;;10.50;81.80;;;;;;5003413;28;20482;-78
2023/12/25 08:44:58;;;;;;;4.60;0.75;;;10.40;82.00;;;;;;4963409;28;20062;-78
2023/12/25 08:47:26;;;;;;;4.53;0.57;;;10.40;82.20;;;;;;4970008;28;20146;-78
2023/12/25 08:49:53;;;;;;;6.37;0.80;;;10.40;82.20;;;;;;4971686;28;20069;-76
2023/12/25 08:52:21;;;;;;;6.78;0.88;;;10.40;82.20;;;;;;4971944;28;20141;-78
2023/12/25 08:54:49;;;;;;;7.63;0.80;;;10.40;82.40;;;;;;4978672;28;20655;-76
2023/12/25 08:57:15;;;;;;;5.55;0.65;;;10.40;82.40;;;;;;4998214;28;20062;-76
2023/12/25 08:59:43;;;;;;;6.45;1.10;;;10.40;82.40;;;;;;4995463;28;20498;-76
2023/12/25 09:02:12;;;;;;;2.73;0.70;;;10.30;82.40;;;;;;4971527;28;20589;-76
2023/12/25 09:04:39;;;;;;;6.82;1.00;;;10.40;82.20;;;;;;5002956;28;20050;-77
2023/12/25 09:07:06;;;;;;;5.30;0.50;;;10.30;82.40;;;;;;4987399;28;20057;-77
2023/12/25 09:09:33;;;;;;;6.43;0.70;;;10.30;82.50;;;;;;5005943;28;20078;-76
2023/12/25 09:12:00;;;;;;;6.28;0.75;;;10.30;82.50;;;;;;4989783;28;20054;-76
2023/12/25 09:14:27;;;;;;;7.23;0.80;;;10.30;82.60;;;;;;4989929;28;20050;-77
2023/12/25 09:16:54;;;;;;;9.63;0.90;;;10.30;82.50;;;;;;4989832;28;20050;-77
2023/12/25 09:19:22;;;;;;;4.88;0.52;;;10.30;82.50;;;;;;4991492;28;20544;-76
2023/12/25 09:21:49;;;;;;;5.72;0.30;;;10.30;82.40;;;;;;4975247;28;20149;-76
2023/12/25 09:24:16;;;;;;;4.43;0.70;;;10.30;82.40;;;;;;5005685;28;20052;-76
2023/12/25 09:26:43;;;;;;;4.67;0.93;;;10.30;82.40;;;;;;4985867;28;20685;-76
2023/12/25 09:29:11;;;;;;;11.35;1.25;;;10.30;82.50;;;;;;5001679;28;20060;-76
2023/12/25 09:31:38;;;;;;;9.20;1.00;;;10.30;82.70;;;;;;4986918;28;20058;-76
2023/12/25 09:34:05;;;;;;;8.32;0.80;;;10.40;82.60;;;;;;4989456;28;20548;-77
2023/12/25 09:36:33;;;;;;;4.15;0.88;;;10.40;82.80;;;;;;4992850;28;20165;-77
2023/12/25 09:39:00;;;;;;;4.60;0.70;;;10.40;82.90;;;;;;4975038;28;20057;-76
2023/12/25 09:41:32;;;;;;;6.45;0.57;;;10.40;83.00;;;;;;4988303;28;20054;-76
2023/12/25 09:43:59;;;;;;;5.93;0.70;;;10.30;83.20;;;;;;4977301;28;20046;-75
2023/12/25 09:46:27;;;;;;;3.67;0.65;;;10.40;83.10;;;;;;4984571;28;20850;-76
2023/12/25 09:48:55;;;;;;;6.88;0.88;;;10.40;83.20;;;;;;4969789;28;20433;-77
2023/12/25 09:51:23;;;;;;;5.83;0.70;;;10.40;83.20;;;;;;4967967;28;20054;-77
2023/12/25 09:53:51;;;;;;;6.93;1.00;;;10.40;83.10;;;;;;4985291;28;20059;-77
2023/12/25 09:56:21;;;;;;;8.82;1.00;;;10.40;83.00;;;;;;4992003;28;20438;-77
2023/12/25 09:58:48;;;;;;;4.57;0.60;;;10.50;82.50;;;;;;4975349;28;20058;-77
2023/12/25 10:01:17;;;;;;;6.78;1.17;;;10.50;82.60;;;;;;4979127;28;20157;-77
2023/12/25 10:03:45;;;;;;;5.33;0.70;;;10.50;82.60;;;;;;4983219;28;20461;-78
2023/12/25 10:06:12;;;;;;;5.55;0.70;;;10.50;82.70;;;;;;4990793;28;20312;-75
2023/12/25 10:08:40;;;;;;;8.75;0.70;;;10.50;82.90;;;;;;4994641;28;20294;-77
2023/12/25 10:11:13;;;;;;;6.05;0.70;;;10.50;83.10;;;;;;4973164;28;20062;-76
2023/12/25 10:13:40;;;;;;;7.10;1.08;;;10.50;83.00;;;;;;4973017;28;20141;-76
2023/12/25 10:16:08;;;;;;;6.27;1.07;;;10.50;82.90;;;;;;4983114;28;20058;-76
2023/12/25 10:18:37;;;;;;;7.03;1.05;;;10.50;83.00;;;;;;4976876;28;20054;-77
2023/12/25 10:21:05;;;;;;;6.35;1.33;;;10.50;83.10;;;;;;4981231;28;20051;-78
2023/12/25 10:23:33;;;;;;;6.97;0.90;;;10.50;83.30;;;;;;4990036;28;20154;-77
2023/12/25 10:26:02;;;;;;;9.32;1.50;;;10.50;83.40;;;;;;4999111;28;20054;-77
2023/12/25 10:28:32;;;;;;;7.07;1.27;;;10.50;83.60;;;;;;4982988;28;20058;-77
2023/12/25 10:31:02;;;;;;;10.05;1.33;;;10.60;83.70;;;;;;4990034;28;20058;-77
2023/12/25 10:33:29;;;;;;;8.38;1.52;;;10.50;83.60;;;;;;4973593;28;20058;-77
2023/12/25 10:36:07;;;;;;;4.93;0.90;;;10.60;83.70;;;;;;4977462;28;20054;-78
2023/12/25 10:38:35;;;;;;;7.90;0.82;;;10.60;83.70;;;;;;4981333;28;20065;-77
2023/12/25 10:41:19;;;;;;;7.90;1.10;;;10.60;83.70;;;;;;4987762;28;20054;-74
2023/12/25 10:43:51;;;;;;;8.13;1.00;;;10.60;83.80;;;;;;4988310;28;20061;-76
2023/12/25 10:46:20;;;;;;;7.65;1.10;;;10.60;83.80;;;;;;4988420;28;20078;-76
2023/12/25 10:48:50;;;;;;;6.22;1.02;;;10.60;83.90;;;;;;4990896;28;20054;-74
2023/12/25 10:51:29;;;;;;;7.18;1.05;;;10.70;83.90;;;;;;4988332;28;20488;-77
2023/12/25 10:53:59;;;;;;;5.97;1.00;;;10.70;83.70;;;;;;4981897;28;20058;-76
2023/12/25 10:56:27;;;;;;;7.65;0.95;;;10.70;83.40;;;;;;4988521;28;20085;-77
2023/12/25 10:58:58;;;;;;;6.43;0.90;;;10.70;83.20;;;;;;4972786;28;20517;-78
2023/12/25 11:01:29;;;;;;;11.20;1.30;;;10.70;83.20;;;;;;4979797;28;20055;-76
2023/12/25 11:03:57;;;;;;;7.65;1.10;;;10.70;83.20;;;;;;4969929;28;20054;-76
2023/12/25 11:06:24;;;;;;;7.90;1.30;;;10.70;83.30;;;;;;4981800;28;20054;-76
2023/12/25 11:08:51;;;;;;;11.55;1.40;;;10.70;83.30;;;;;;4990045;28;20046;-76
2023/12/25 11:11:19;;;;;;;9.43;0.90;;;10.70;83.40;;;;;;5006408;28;20061;-76
2023/12/25 11:13:47;;;;;;;8.40;1.02;;;10.70;83.50;;;;;;4988428;28;20058;-76
2023/12/25 11:16:16;;;;;;;9.55;1.30;;;10.70;83.40;;;;;;4966022;28;20058;-76
2023/12/25 11:18:45;;;;;;;12.40;2.90;;;10.70;83.60;;;;;;4998290;28;20062;-76
2023/12/25 11:21:18;;;;;;;5.45;0.60;;;10.70;83.60;;;;;;4989281;28;20625;-76
2023/12/25 11:23:46;;;;;;;11.27;1.10;;;10.70;83.70;;;;;;5004857;28;20051;-76
2023/12/25 11:26:16;;;;;;;9.65;1.48;;;10.80;83.70;;;;;;4986294;28;20513;-75
2023/12/25 11:28:49;;;;;;;10.00;1.40;;;10.70;83.70;;;;;;4995147;28;20140;-76
2023/12/25 11:31:23;;;;;;;7.10;1.10;;;10.70;83.70;;;;;;4972816;28;20108;-76
2023/12/25 11:33:50;;;;;;;7.68;1.80;;;10.70;83.80;;;;;;5003359;28;20548;-76
2023/12/25 11:36:18;;;;;;;8.05;1.63;;;10.70;83.90;;;;;;5008451;28;20081;-77
2023/12/25 11:38:46;;;;;;;9.45;1.90;;;10.80;83.90;;;;;;4992613;28;20050;-77
2023/12/25 11:41:18;;;;;;;8.98;1.20;;;10.80;84.00;;;;;;4969466;28;20055;-75
2023/12/25 11:43:47;;;;;;;7.67;0.77;;;10.80;84.10;;;;;;4996926;28;20171;-76
2023/12/25 11:46:19;;;;;;;11.93;2.50;;;10.80;84.20;;;;;;4975566;28;20266;-75
2023/12/25 11:48:49;;;;;;;10.63;1.55;;;10.80;84.00;;;;;;4988152;28;20058;-74
2023/12/25 11:51:21;;;;;;;6.40;1.10;;;10.80;84.10;;;;;;4976258;28;20072;-75
2023/12/25 11:53:50;;;;;;;7.78;1.20;;;10.80;84.10;;;;;;4971852;28;20050;-75
2023/12/25 11:56:18;;;;;;;9.20;1.07;;;10.90;84.00;;;;;;4993811;28;20605;-76
2023/12/25 11:58:45;;;;;;;10.38;1.30;;;10.90;83.70;;;;;;4980673;28;20240;-75
2023/12/25 12:01:17;;;;;;;10.20;0.95;;;10.90;83.70;;;;;;5003892;28;20080;-76
2023/12/25 12:03:45;;;;;;;9.65;1.95;;;10.90;83.70;;;;;;4973113;28;20968;-76
2023/12/25 12:06:14;;;;;;;6.88;1.15;;;10.90;83.70;;;;;;4989938;28;20577;-76
2023/12/25 12:08:41;;;;;;;4.67;0.83;;;11.00;83.90;;;;;;4985585;28;20058;-76
2023/12/25 12:11:09;;;;;;;7.13;1.23;;;10.90;84.00;;;;;;4998502;28;20058;-75
2023/12/25 12:13:36;;;;;;;7.55;1.23;;;11.00;84.10;;;;;;4993252;28;20604;-75
2023/12/25 12:16:03;;;;;;;6.22;0.88;;;11.00;84.10;;;;;;4984546;28;20229;-75
2023/12/25 12:18:30;;;;;;;6.45;1.10;;;11.00;84.10;;;;;;4989441;28;20062;-75
2023/12/25 12:20:58;;;;;;;7.80;1.00;;;11.00;83.90;;;;;;4984992;28;20082;-74
2023/12/25 12:23:27;;;;;;;5.05;0.80;;;11.00;84.00;;;;;;4988027;28;20047;-76
2023/12/25 12:25:54;;;;;;;3.83;0.88;;;11.00;84.30;;;;;;4971703;28;20050;-76
2023/12/25 12:28:21;;;;;;;8.82;2.70;;;11.10;84.40;;;;;;4986064;28;20046;-77
2023/12/25 12:30:48;;;;;;;3.22;0.85;;;11.10;84.40;;;;;;4972700;28;20145;-77
2023/12/25 12:33:16;;;;;;;8.30;1.37;;;11.10;84.40;;;;;;4970643;28;20055;-78
2023/12/25 12:35:43;;;;;;;5.32;0.52;;;11.20;84.00;;;;;;4984802;28;20058;-77
2023/12/25 12:38:12;;;;;;;6.45;1.10;;;11.30;83.70;;;;;;4983117;28;20058;-79
2023/12/25 12:40:41;;;;;;;7.70;0.80;;;11.30;84.00;;;;;;4981915;28;20050;-77
2023/12/25 12:43:08;;;;;;;6.15;0.43;;;11.30;84.00;;;;;;4988779;28;20066;-79
2023/12/25 12:45:35;;;;;;;5.40;0.87;;;11.30;84.10;;;;;;4984709;28;20046;-78
2023/12/25 12:48:02;;;;;;;8.85;1.30;;;11.30;84.20;;;;;;4982860;28;20054;-77
2023/12/25 12:50:28;;;;;;;5.45;0.90;;;11.30;84.10;;;;;;4968528;28;20164;-78
2023/12/25 12:52:55;;;;;;;5.70;1.30;;;11.30;84.00;;;;;;4985293;28;20053;-77